Time;durP1;ratioP1;P1;durP2;ratioP2;P2;SDS_P1;SDS_P2;PMS_P1;PMS_P2;Temp;Humidity;BMP_temperature;BMP_pressure;BME280_temperature;BME280_humidity;BME280_pressure;Samples;Min_cycle;Max_cycle;Signal;HPM_P1;HPM_P2
2021/01/06 00:00:17;;;;;;;38.45;23.65;;;;;;;0.26;89.71;100684.09;1769113;81;21187;-73
2021/01/06 00:02:45;;;;;;;37.28;21.62;;;;;;;0.28;89.69;100689.98;1766791;81;21171;-74
2021/01/06 00:05:20;;;;;;;38.15;22.73;;;;;;;0.27;89.66;100698.08;1768157;81;21284;-76
2021/01/06 00:07:49;;;;;;;36.80;21.65;;;;;;;0.25;89.60;100693.49;1768776;80;21204;-72
2021/01/06 00:10:23;;;;;;;38.35;23.67;;;;;;;0.19;89.58;100695.84;1753447;81;21188;-73
2021/01/06 00:12:52;;;;;;;37.70;23.12;;;;;;;0.20;89.60;100696.69;1757886;81;21200;-72
2021/01/06 00:15:30;;;;;;;38.38;23.00;;;;;;;0.21;89.62;100700.93;1779994;79;21691;-74
2021/01/06 00:17:58;;;;;;;35.48;20.25;;;;;;;0.23;89.65;100692.34;1800750;78;21188;-73
2021/01/06 00:20:27;;;;;;;36.73;23.50;;;;;;;0.27;89.64;100693.63;1785260;78;22353;-72
2021/01/06 00:22:57;;;;;;;29.80;18.52;;;;;;;0.26;89.57;100694.61;1810025;78;22673;-73
2021/01/06 00:25:30;;;;;;;36.70;22.22;;;;;;;0.25;89.55;100697.44;1810392;78;21296;-74
2021/01/06 00:27:58;;;;;;;34.85;21.62;;;;;;;0.22;89.56;100688.91;1777830;78;21156;-73
2021/01/06 00:30:36;;;;;;;32.98;20.95;;;;;;;0.20;89.58;100676.48;1821919;78;21555;-74
2021/01/06 00:33:07;;;;;;;31.48;19.67;;;;;;;0.22;89.59;100678.91;1786765;78;22073;-73
2021/01/06 00:35:34;;;;;;;36.58;23.47;;;;;;;0.21;89.63;100673.35;1785813;78;21121;-73
2021/01/06 00:38:03;;;;;;;37.70;24.13;;;;;;;0.20;89.63;100675.17;1673199;77;9999635;-74
2021/01/06 00:40:34;;;;;;;33.58;19.82;;;;;;;0.22;89.62;100673.15;1794549;78;21161;-74
2021/01/06 00:43:07;;;;;;;37.42;22.17;;;;;;;0.24;89.65;100675.61;1827008;77;21362;-73
2021/01/06 00:45:35;;;;;;;37.55;22.95;;;;;;;0.25;89.63;100669.34;1828649;77;21498;-74
2021/01/06 00:48:04;;;;;;;33.45;20.08;;;;;;;0.24;89.62;100670.36;1831070;77;21200;-74
2021/01/06 00:50:33;;;;;;;35.58;22.07;;;;;;;0.28;89.61;100670.29;1839863;77;21751;-74
2021/01/06 00:53:07;;;;;;;39.95;24.50;;;;;;;0.32;89.61;100668.09;1833302;77;21172;-74
2021/01/06 00:55:35;;;;;;;36.00;21.77;;;;;;;0.35;89.58;100665.09;1788877;79;22026;-75
2021/01/06 00:58:03;;;;;;;44.80;23.80;;;;;;;0.37;89.55;100665.73;1831045;77;21200;-73
2021/01/06 01:00:31;;;;;;;37.13;23.00;;;;;;;0.38;89.47;100662.09;1839346;77;21547;-73
2021/01/06 01:03:01;;;;;;;40.03;23.85;;;;;;;0.39;89.40;100668.97;1834207;77;21555;-73
2021/01/06 01:05:31;;;;;;;37.58;23.12;;;;;;;0.35;89.32;100661.97;1811194;77;21066;-74
2021/01/06 01:07:59;;;;;;;39.85;23.75;;;;;;;0.35;89.34;100661.16;1767037;79;21386;-73
2021/01/06 01:10:45;;;;;;;36.33;22.42;;;;;;;0.35;89.34;100665.09;1831666;77;21144;-73
2021/01/06 01:13:25;;;;;;;38.20;22.48;;;;;;;0.35;89.32;100661.16;1837530;77;21168;-74
2021/01/06 01:15:57;;;;;;;38.90;23.07;;;;;;;0.38;89.34;100656.84;1767463;79;21172;-74
2021/01/06 01:18:27;;;;;;;46.68;27.40;;;;;;;0.39;89.29;100657.15;1840289;77;21560;-74
2021/01/06 01:20:57;;;;;;;37.73;21.80;;;;;;;0.35;89.24;100656.72;1829824;77;21356;-73
2021/01/06 01:23:27;;;;;;;39.27;24.20;;;;;;;0.38;89.26;100655.53;1771009;79;21199;-73
2021/01/06 01:25:57;;;;;;;40.50;24.45;;;;;;;0.36;89.24;100654.42;1829708;77;21112;-72
2021/01/06 01:28:25;;;;;;;42.55;25.62;;;;;;;0.38;89.23;100654.22;1821480;77;21211;-72
2021/01/06 01:30:55;;;;;;;43.63;25.70;;;;;;;0.39;89.22;100657.15;1839888;77;21579;-72
2021/01/06 01:33:25;;;;;;;42.25;25.45;;;;;;;0.41;89.20;100656.47;1843991;77;22382;-74
2021/01/06 01:35:54;;;;;;;44.95;26.33;;;;;;;0.41;89.13;100652.53;1829721;77;21136;-73
2021/01/06 01:38:25;;;;;;;39.95;24.90;;;;;;;0.41;89.11;100645.96;1825092;77;21148;-73
2021/01/06 01:41:08;;;;;;;43.52;25.90;;;;;;;0.40;89.15;100643.03;1839558;77;21199;-73
2021/01/06 01:43:36;;;;;;;35.98;22.40;;;;;;;0.39;89.14;100634.81;1823939;77;21093;-74
2021/01/06 01:46:10;;;;;;;38.40;22.60;;;;;;;0.42;89.15;100635.75;1759455;79;21372;-75
2021/01/06 01:48:41;;;;;;;36.73;22.58;;;;;;;0.45;89.10;100642.76;1842523;77;21097;-73
2021/01/06 01:51:36;;;;;;;38.60;21.95;;;;;;;0.44;89.06;100631.14;1845220;77;21189;-73
2021/01/06 01:54:08;;;;;;;46.05;25.20;;;;;;;0.46;89.08;100630.42;1820452;77;21104;-75
2021/01/06 01:56:50;;;;;;;41.53;25.00;;;;;;;0.45;89.04;100632.75;1826332;77;21169;-74
2021/01/06 01:59:29;;;;;;;39.65;24.67;;;;;;;0.49;89.02;100625.30;1843832;77;21700;-74
2021/01/06 02:02:02;;;;;;;37.15;23.45;;;;;;;0.50;89.01;100629.08;1772931;79;21057;-74
2021/01/06 02:04:44;;;;;;;38.78;23.95;;;;;;;0.51;88.99;100626.75;1834673;77;21148;-73
2021/01/06 02:07:23;;;;;;;35.30;21.85;;;;;;;0.51;88.97;100632.51;1830209;77;21481;-73
2021/01/06 02:10:31;;;;;;;36.25;21.25;;;;;;;0.49;88.89;100634.00;1827365;77;21556;-74
2021/01/06 02:13:25;;;;;;;38.90;22.70;;;;;;;0.51;88.87;100634.63;1814222;78;24039;-76
2021/01/06 02:16:12;;;;;;;36.48;21.17;;;;;;;0.46;88.88;100637.00;1781223;80;21622;-77
2021/01/06 02:18:40;;;;;;;32.13;19.45;;;;;;;0.46;88.86;100635.21;1748766;80;21226;-78
2021/01/06 02:21:13;;;;;;;35.55;21.70;;;;;;;0.45;88.82;100628.81;1790543;78;21144;-76
2021/01/06 02:23:42;;;;;;;40.95;24.00;;;;;;;0.44;88.80;100625.88;1788141;80;21204;-77
2021/01/06 02:26:10;;;;;;;37.15;22.85;;;;;;;0.41;88.80;100623.63;1803563;78;21580;-77
2021/01/06 02:28:38;;;;;;;37.83;23.18;;;;;;;0.38;88.81;100627.95;1796537;79;21049;-78
2021/01/06 02:31:06;;;;;;;36.63;23.07;;;;;;;0.38;88.83;100615.61;1786867;79;21277;-77
2021/01/06 02:33:35;;;;;;;37.73;23.02;;;;;;;0.39;88.84;100618.55;1788650;79;21061;-77
2021/01/06 02:36:04;;;;;;;37.67;22.77;;;;;;;0.40;88.87;100622.02;1783261;79;21183;-77
2021/01/06 02:38:34;;;;;;;40.92;24.63;;;;;;;0.41;88.88;100621.81;1776237;80;21204;-77
2021/01/06 02:41:02;;;;;;;36.20;23.05;;;;;;;0.42;88.85;100616.86;1754174;79;21220;-77
2021/01/06 02:43:31;;;;;;;34.58;22.00;;;;;;;0.44;88.85;100618.00;1791632;79;21386;-77
2021/01/06 02:45:59;;;;;;;33.18;20.62;;;;;;;0.41;88.81;100609.98;1748715;79;21627;-77
2021/01/06 02:48:27;;;;;;;34.18;20.08;;;;;;;0.41;88.81;100617.06;1744076;79;21046;-77
2021/01/06 02:51:24;;;;;;;33.00;19.95;;;;;;;0.43;88.80;100621.64;1799215;79;21464;-76
2021/01/06 02:53:56;;;;;;;36.30;23.18;;;;;;;0.43;88.77;100625.58;1797699;79;21205;-77
2021/01/06 02:56:24;;;;;;;;;;;;;;;0.44;88.79;100622.75;1782287;79;21160;-76
2021/01/06 02:58:53;;;;;;;33.18;20.32;;;;;;;0.40;88.76;100614.94;1787612;79;20234;-77
2021/01/06 03:01:24;;;;;;;38.30;23.60;;;;;;;0.40;88.80;100616.76;1745076;79;21188;-77
2021/01/06 03:03:52;;;;;;;38.73;23.55;;;;;;;0.43;88.77;100619.01;1756412;79;21160;-77
2021/01/06 03:06:43;;;;;;;32.50;20.27;;;;;;;0.43;88.75;100621.64;1755642;79;21183;-77
2021/01/06 03:09:34;;;;;;;40.35;23.77;;;;;;;0.45;88.76;100619.11;1780583;79;21168;-76
2021/01/06 03:12:06;;;;;;;36.58;23.20;;;;;;;0.46;88.71;100619.92;1771325;79;21144;-77
2021/01/06 03:14:35;;;;;;;40.17;25.77;;;;;;;0.49;88.71;100616.91;1795527;79;21079;-78
2021/01/06 03:17:04;;;;;;;45.63;25.95;;;;;;;0.50;88.67;100615.12;1790983;78;21187;-76
2021/01/06 03:19:34;;;;;;;41.48;22.77;;;;;;;0.53;88.65;100621.29;1761230;79;21104;-77
2021/01/06 03:22:05;;;;;;;40.50;24.80;;;;;;;0.54;88.61;100622.94;1779834;79;21210;-77
2021/01/06 03:24:44;;;;;;;38.65;24.15;;;;;;;0.55;88.52;100621.92;1791794;79;21618;-76
2021/01/06 03:27:12;;;;;;;42.35;23.38;;;;;;;0.53;88.53;100614.24;1788067;79;21172;-77
2021/01/06 03:29:40;;;;;;;39.63;23.02;;;;;;;0.56;88.52;100620.91;1790120;79;21171;-77
2021/01/06 03:32:21;;;;;;;42.08;24.77;;;;;;;0.56;88.48;100621.75;1794067;79;21118;-78
2021/01/06 03:34:53;;;;;;;38.65;24.45;;;;;;;0.53;88.40;100625.23;1790991;79;21980;-76
2021/01/06 03:37:36;;;;;;;34.25;22.07;;;;;;;0.55;88.39;100617.98;1783649;79;21227;-76
2021/01/06 03:40:15;;;;;;;41.77;24.02;;;;;;;0.56;88.42;100615.66;1790084;79;21112;-76
2021/01/06 03:42:43;;;;;;;44.85;22.42;;;;;;;0.56;88.39;100619.59;1797943;79;21167;-76
2021/01/06 03:45:17;;;;;;;37.38;22.87;;;;;;;0.55;88.35;100616.16;1781482;79;21203;-77
2021/01/06 03:47:46;;;;;;;35.73;21.77;;;;;;;0.54;88.32;100623.74;1760543;79;21455;-76
2021/01/06 03:50:42;;;;;;;36.75;21.82;;;;;;;0.51;88.30;100630.69;1703976;81;21120;-76
2021/01/06 03:53:35;;;;;;;42.73;24.77;;;;;;;0.49;88.30;100625.30;1780895;79;21320;-77
2021/01/06 03:56:28;;;;;;;39.95;24.32;;;;;;;0.48;88.33;100623.18;1788630;79;21144;-78
2021/01/06 03:59:04;;;;;;;40.45;24.02;;;;;;;0.49;88.34;100616.91;1787388;79;21603;-75
2021/01/06 04:02:00;;;;;;;39.60;22.52;;;;;;;0.52;88.34;100611.78;1777488;79;22306;-74
2021/01/06 04:04:46;;;;;;;41.65;22.95;;;;;;;0.52;88.35;100616.53;1772777;79;21183;-74
2021/01/06 04:07:31;;;;;;;41.95;22.87;;;;;;;0.51;88.36;100612.80;1798032;79;21187;-76
2021/01/06 04:10:25;;;;;;;37.25;19.62;;;;;;;0.51;88.33;100604.41;1776053;79;21209;-76
2021/01/06 04:12:54;;;;;;;40.10;23.18;;;;;;;0.47;88.38;100601.86;1792673;79;21163;-75
2021/01/06 04:15:22;;;;;;;47.60;25.62;;;;;;;0.44;88.38;100594.34;1792205;79;21500;-76
2021/01/06 04:17:52;;;;;;;40.45;22.52;;;;;;;0.41;88.44;100605.23;1780778;79;21199;-75
2021/01/06 04:20:37;;;;;;;41.35;23.92;;;;;;;0.40;88.49;100603.11;1782344;79;21610;-75
2021/01/06 04:23:09;;;;;;;44.80;23.90;;;;;;;0.39;88.48;100609.34;1784658;79;21183;-76
2021/01/06 04:25:40;;;;;;;44.58;24.98;;;;;;;0.40;88.55;100611.00;1795312;79;21508;-76
2021/01/06 04:28:18;;;;;;;44.75;25.08;;;;;;;0.37;88.62;100615.81;1773813;79;22306;-76
2021/01/06 04:30:59;;;;;;;43.65;24.90;;;;;;;0.38;88.67;100616.13;1783097;79;21184;-76
2021/01/06 04:33:31;;;;;;;41.65;23.95;;;;;;;0.40;88.69;100620.19;1791198;79;21635;-75
2021/01/06 04:36:04;;;;;;;43.38;25.92;;;;;;;0.42;88.73;100627.37;1767158;79;21164;-74
2021/01/06 04:38:37;;;;;;;41.77;22.50;;;;;;;0.44;88.77;100628.51;1787242;79;21191;-74
2021/01/06 04:41:34;;;;;;;50.20;26.73;;;;;;;0.45;88.81;100633.56;1789035;79;21387;-75
2021/01/06 04:44:24;;;;;;;53.20;27.85;;;;;;;0.46;88.80;100642.25;1782263;78;21164;-75
2021/01/06 04:47:41;;;;;;;48.83;25.65;;;;;;;0.48;88.81;100639.45;1784799;79;21076;-76
2021/01/06 04:50:53;;;;;;;44.35;25.85;;;;;;;0.51;88.86;100643.83;1790626;79;21618;-75
2021/01/06 04:54:03;;;;;;;44.85;26.25;;;;;;;0.52;88.87;100636.75;1786714;79;21136;-76
2021/01/06 04:57:07;;;;;;;44.30;24.55;;;;;;;0.53;88.88;100641.84;1790225;79;21611;-76
2021/01/06 05:00:10;;;;;;;52.73;28.40;;;;;;;0.55;88.88;100643.76;1752597;79;21476;-78
2021/01/06 05:03:15;;;;;;;39.70;22.90;;;;;;;0.57;88.91;100644.39;1789527;79;21076;-76
2021/01/06 05:06:20;;;;;;;53.48;29.35;;;;;;;0.59;88.91;100645.03;1773591;79;21566;-77
2021/01/06 05:08:51;;;;;;;53.20;29.92;;;;;;;0.60;88.89;100644.52;1789855;79;21183;-76
2021/01/06 05:11:41;;;;;;;56.10;29.20;;;;;;;0.65;88.91;100644.75;1784146;79;21563;-77
2021/01/06 05:14:12;;;;;;;51.30;28.95;;;;;;;0.66;88.86;100645.89;1781290;79;21127;-77
2021/01/06 05:16:46;;;;;;;56.53;29.45;;;;;;;0.64;88.86;100651.83;1781153;79;21175;-77
2021/01/06 05:19:22;;;;;;;51.20;28.27;;;;;;;0.64;88.83;100651.02;1803114;78;21176;-77
2021/01/06 05:21:51;;;;;;;54.70;29.67;;;;;;;0.63;88.84;100651.52;1775781;80;21376;-77
2021/01/06 05:24:32;;;;;;;55.88;29.27;;;;;;;0.67;88.88;100655.39;1748965;80;21636;-76
2021/01/06 05:27:25;;;;;;;54.67;28.90;;;;;;;0.69;88.89;100652.09;1795864;79;21322;-78
2021/01/06 05:29:59;;;;;;;57.30;29.30;;;;;;;0.70;88.87;100655.02;1782175;79;21117;-76
2021/01/06 05:32:37;;;;;;;53.50;28.55;;;;;;;0.73;88.85;100653.02;1776901;79;21230;-77
2021/01/06 05:35:22;;;;;;;47.15;25.92;;;;;;;0.74;88.83;100642.30;1775930;79;21559;-77
2021/01/06 05:37:53;;;;;;;52.45;27.17;;;;;;;0.76;88.83;100648.20;1788394;79;21218;-76
2021/01/06 05:40:21;;;;;;;56.50;29.52;;;;;;;0.74;88.79;100648.07;1783941;79;21156;-76
2021/01/06 05:42:56;;;;;;;49.48;25.45;;;;;;;0.72;88.80;100651.38;1785845;79;21171;-77
2021/01/06 05:45:38;;;;;;;46.63;25.48;;;;;;;0.70;88.77;100647.13;1792314;79;21167;-77
2021/01/06 05:48:22;;;;;;;54.53;28.20;;;;;;;0.69;88.77;100651.25;1793107;79;21167;-78
2021/01/06 05:51:22;;;;;;;53.23;27.35;;;;;;;0.69;88.80;100653.41;1787952;79;21379;-77
2021/01/06 05:54:15;;;;;;;55.28;28.83;;;;;;;0.70;88.80;100660.78;1776343;78;21164;-78
2021/01/06 05:57:00;;;;;;;52.15;27.62;;;;;;;0.73;88.82;100664.85;1805380;78;21160;-77
2021/01/06 05:59:52;;;;;;;42.25;22.75;;;;;;;0.75;88.77;100661.52;1811012;78;21128;-77
2021/01/06 06:03:10;;;;;;;51.00;25.55;;;;;;;0.76;88.79;100662.66;1788186;79;21160;-78
2021/01/06 06:05:57;;;;;;;53.80;28.30;;;;;;;0.75;88.76;100658.38;1768279;80;21374;-77
2021/01/06 06:09:04;;;;;;;56.33;29.18;;;;;;;0.74;88.76;100663.34;1814017;78;21072;-76
2021/01/06 06:12:09;;;;;;;50.17;26.15;;;;;;;0.76;88.80;100665.77;1769432;78;21483;-76
2021/01/06 06:15:10;;;;;;;49.00;25.85;;;;;;;0.78;88.79;100672.47;1801648;78;21125;-77
2021/01/06 06:17:46;;;;;;;45.50;24.00;;;;;;;0.79;88.79;100677.22;1785145;78;21127;-77
2021/01/06 06:20:41;;;;;;;52.05;26.77;;;;;;;0.78;88.77;100674.28;1806069;78;21279;-76
2021/01/06 06:23:54;;;;;;;52.25;26.35;;;;;;;0.76;88.76;100680.22;1781421;80;21208;-77
2021/01/06 06:26:39;;;;;;;51.13;26.52;;;;;;;0.77;88.86;100677.92;1788566;80;21111;-78
2021/01/06 06:29:31;;;;;;;51.60;25.60;;;;;;;0.77;88.92;100680.05;1707719;80;21102;-77
2021/01/06 06:32:07;;;;;;;58.70;28.57;;;;;;;0.82;88.89;100679.47;1756064;79;22843;-76
2021/01/06 06:34:40;;;;;;;51.58;25.40;;;;;;;0.76;88.93;100681.06;1712274;81;21567;-78
2021/01/06 06:37:17;;;;;;;61.08;29.40;;;;;;;0.75;88.93;100676.78;1746712;82;22323;-79
2021/01/06 06:39:50;;;;;;;55.80;27.45;;;;;;;0.73;88.99;100674.06;1743923;80;21098;-80
2021/01/06 06:42:36;;;;;;;61.63;29.20;;;;;;;0.77;89.06;100668.72;1805304;78;22775;-78
2021/01/06 06:45:42;;;;;;;58.28;27.27;;;;;;;0.73;89.06;100674.86;1782074;78;21057;-79
2021/01/06 06:48:38;;;;;;;51.02;25.55;;;;;;;0.75;89.11;100672.84;1779415;80;21260;-79
2021/01/06 06:51:22;;;;;;;54.08;26.80;;;;;;;0.80;89.18;100683.62;1769924;80;21172;-77
2021/01/06 06:53:58;;;;;;;55.10;27.42;;;;;;;0.86;89.21;100683.38;1776146;79;21128;-80
2021/01/06 06:56:59;;;;;;;59.50;29.90;;;;;;;0.88;89.18;100683.97;1779917;80;21104;-77
2021/01/06 06:59:51;;;;;;;54.65;29.25;;;;;;;0.92;89.22;100686.53;1723798;79;21593;-77
2021/01/06 07:02:19;;;;;;;53.92;27.37;;;;;;;0.97;89.18;100687.29;1771979;80;21303;-78
2021/01/06 07:04:51;;;;;;;42.27;21.48;;;;;;;1.00;89.18;100681.65;1762486;80;21165;-78
2021/01/06 07:07:42;;;;;;;47.30;22.82;;;;;;;0.99;89.14;100683.47;1789607;80;21131;-78
2021/01/06 07:10:27;;;;;;;49.77;25.88;;;;;;;0.96;89.10;100686.98;1769495;79;21630;-77
2021/01/06 07:13:07;;;;;;;49.87;25.33;;;;;;;1.00;89.13;100698.75;1815633;77;23232;-74
2021/01/06 07:15:52;;;;;;;51.90;26.15;;;;;;;0.96;89.15;100690.42;1738256;80;21293;-73
2021/01/06 07:18:31;;;;;;;56.40;27.60;;;;;;;0.99;89.18;100687.89;1741906;80;21433;-74
2021/01/06 07:21:10;;;;;;;49.00;24.45;;;;;;;1.01;89.19;100688.53;1762281;79;21187;-73
2021/01/06 07:23:45;;;;;;;47.10;23.87;;;;;;;1.04;89.21;100683.70;1771144;79;21132;-74
2021/01/06 07:26:21;;;;;;;48.15;23.77;;;;;;;1.04;89.13;100680.26;1752397;79;21175;-75
2021/01/06 07:28:49;;;;;;;49.23;27.15;;;;;;;1.05;89.19;100681.88;1739807;79;21589;-74
2021/01/06 07:31:23;;;;;;;52.70;26.23;;;;;;;1.06;89.22;100678.27;1734382;79;21787;-75
2021/01/06 07:33:56;;;;;;;46.83;24.75;;;;;;;1.12;89.26;100681.45;1767095;79;21623;-73
2021/01/06 07:36:32;;;;;;;42.08;22.65;;;;;;;1.20;89.30;100683.11;1747476;79;21180;-72
2021/01/06 07:39:00;;;;;;;46.48;23.15;;;;;;;1.25;89.19;100680.70;1760339;79;21501;-72
2021/01/06 07:41:29;;;;;;;46.88;24.75;;;;;;;1.26;89.16;100682.34;1735367;79;21253;-74
2021/01/06 07:44:26;;;;;;;44.77;23.92;;;;;;;1.26;89.14;100683.66;1741643;81;21233;-74
2021/01/06 07:47:16;;;;;;;53.20;25.75;;;;;;;1.32;89.18;100686.84;1773971;79;21219;-78
2021/01/06 07:49:53;;;;;;;45.95;24.15;;;;;;;1.29;89.12;100677.50;1770568;79;21208;-78
2021/01/06 07:52:51;;;;;;;45.65;23.77;;;;;;;1.31;89.07;100684.69;1742147;80;21136;-76
2021/01/06 07:55:46;;;;;;;42.00;23.87;;;;;;;1.34;89.08;100688.75;1787249;80;21155;-79
2021/01/06 07:58:17;;;;;;;45.88;22.65;;;;;;;1.35;89.05;100694.32;1785444;79;21162;-78
2021/01/06 08:01:05;;;;;;;43.92;23.57;;;;;;;1.34;89.04;100695.34;1779943;79;21132;-81
2021/01/06 08:03:56;;;;;;;42.33;24.07;;;;;;;1.34;89.01;100692.20;1779511;80;21116;-78
2021/01/06 08:06:58;;;;;;;41.55;21.37;;;;;;;1.35;88.97;100696.95;1729888;81;21128;-79
2021/01/06 08:09:40;;;;;;;46.60;24.65;;;;;;;1.35;88.96;100703.05;1783166;79;21128;-78
2021/01/06 08:12:40;;;;;;;39.05;21.10;;;;;;;1.33;88.96;100699.79;1766917;80;22463;-76
2021/01/06 08:15:19;;;;;;;43.68;23.45;;;;;;;1.36;88.95;100699.91;1777309;79;21219;-80
2021/01/06 08:18:04;;;;;;;44.42;21.50;;;;;;;1.36;88.93;100703.36;1783296;79;21143;-78
2021/01/06 08:20:56;;;;;;;40.60;22.10;;;;;;;1.38;88.90;100702.67;1762311;79;21177;-76
2021/01/06 08:23:45;;;;;;;37.40;20.88;;;;;;;1.40;88.87;100706.41;1776612;80;21176;-77
2021/01/06 08:26:29;;;;;;;48.95;24.45;;;;;;;1.42;88.91;100709.67;1783490;79;21635;-77
2021/01/06 08:29:18;;;;;;;46.28;23.70;;;;;;;1.44;88.90;100711.59;1776837;79;21176;-76
2021/01/06 08:31:50;;;;;;;43.28;22.13;;;;;;;1.47;88.89;100708.58;1784959;79;21270;-77
2021/01/06 08:34:26;;;;;;;42.27;22.85;;;;;;;1.55;88.87;100712.90;1778104;79;21133;-77
2021/01/06 08:36:58;;;;;;;42.48;23.20;;;;;;;1.57;88.81;100711.67;1733052;81;21203;-77
2021/01/06 08:39:27;;;;;;;46.98;23.57;;;;;;;1.59;88.83;100714.13;1785078;79;22063;-77
2021/01/06 08:41:58;;;;;;;43.98;24.45;;;;;;;1.62;88.84;100712.42;1786162;80;21580;-77
2021/01/06 08:44:33;;;;;;;44.42;23.95;;;;;;;1.69;88.85;100708.00;1755031;80;21615;-78
2021/01/06 08:47:04;;;;;;;46.80;23.52;;;;;;;1.79;88.85;100707.65;1783913;79;21061;-78
2021/01/06 08:49:34;;;;;;;;;;;;;;;1.83;88.77;100707.56;1764831;80;21076;-77
2021/01/06 08:52:22;;;;;;;39.85;20.92;;;;;;;1.86;88.72;100707.17;1771431;79;21214;-77
2021/01/06 08:55:19;;;;;;;42.15;22.80;;;;;;;1.87;88.68;100702.20;1774344;80;21216;-77
2021/01/06 08:58:01;;;;;;;44.58;24.90;;;;;;;1.90;88.60;100702.31;1785345;79;21132;-76
2021/01/06 09:00:44;;;;;;;42.38;22.30;;;;;;;1.90;88.49;100703.12;1786838;80;21112;-78
2021/01/06 09:04:03;;;;;;;39.70;20.88;;;;;;;1.98;88.56;100705.61;1782547;79;21426;-78
2021/01/06 09:06:31;;;;;;;45.63;24.00;;;;;;;1.99;88.43;100705.10;1590277;88;21515;-76
2021/01/06 09:09:30;;;;;;;47.33;24.50;;;;;;;1.96;88.35;100717.34;1697342;81;21172;-77
2021/01/06 09:11:59;;;;;;;41.02;21.80;;;;;;;2.02;88.35;100709.47;1785978;80;21112;-78
2021/01/06 09:14:32;;;;;;;48.98;25.00;;;;;;;2.10;88.32;100704.52;1732435;80;21188;-76
2021/01/06 09:17:21;;;;;;;48.23;24.70;;;;;;;2.13;88.23;100708.59;1775761;79;21651;-77
2021/01/06 09:20:08;;;;;;;46.02;24.20;;;;;;;2.20;88.18;100710.73;1760350;80;21632;-78
2021/01/06 09:22:36;;;;;;;41.95;24.40;;;;;;;2.30;88.16;100712.01;1787744;79;21580;-77
2021/01/06 09:25:05;;;;;;;40.40;22.93;;;;;;;2.43;88.04;100712.52;1780424;79;21136;-76
2021/01/06 09:27:42;;;;;;;43.08;24.07;;;;;;;2.56;87.99;100711.23;1784280;80;21196;-77
2021/01/06 09:30:24;;;;;;;37.70;21.42;;;;;;;2.67;87.83;100708.53;1779770;80;21175;-77
2021/01/06 09:32:54;;;;;;;38.42;21.70;;;;;;;2.65;87.46;100696.04;1786344;80;21209;-78
2021/01/06 09:35:27;;;;;;;38.13;22.73;;;;;;;2.61;87.30;100708.52;1731539;81;21212;-77
2021/01/06 09:38:12;;;;;;;41.75;23.05;;;;;;;2.66;87.30;100698.16;1763796;80;21179;-77
2021/01/06 09:40:40;;;;;;;39.78;22.15;;;;;;;2.72;87.20;100702.13;1737842;81;21156;-78
2021/01/06 09:43:15;;;;;;;36.38;21.70;;;;;;;2.82;87.13;100703.05;1757404;80;21163;-77
2021/01/06 09:45:52;;;;;;;34.20;19.20;;;;;;;2.97;87.00;100699.72;1758470;79;23454;-73
2021/01/06 09:48:19;;;;;;;36.28;20.25;;;;;;;2.97;86.79;100695.76;1728361;82;21117;-71
2021/01/06 09:50:53;;;;;;;34.88;20.95;;;;;;;3.04;86.55;100695.76;1744156;81;21168;-72
2021/01/06 09:53:25;;;;;;;34.83;21.27;;;;;;;3.08;86.43;100691.69;1715808;82;21186;-72
2021/01/06 09:55:54;;;;;;;36.60;21.05;;;;;;;3.13;86.22;100691.09;1746978;79;21250;-71
2021/01/06 09:58:37;;;;;;;37.70;21.60;;;;;;;3.16;86.08;100686.70;1752720;81;21160;-72
2021/01/06 10:01:19;;;;;;;35.80;20.20;;;;;;;3.13;85.77;100691.09;1751221;81;21163;-72
2021/01/06 10:03:49;;;;;;;34.30;18.10;;;;;;;3.07;85.63;100684.80;1766985;81;22687;-72
2021/01/06 10:06:40;;;;;;;32.83;20.00;;;;;;;3.00;85.47;100682.16;1747986;79;21206;-72
2021/01/06 10:09:13;;;;;;;35.45;20.00;;;;;;;2.92;85.36;100682.86;1748961;81;21631;-73
2021/01/06 10:12:07;;;;;;;33.05;19.17;;;;;;;2.91;85.44;100678.10;1739835;81;21111;-74
2021/01/06 10:15:14;;;;;;;32.70;18.87;;;;;;;2.96;85.46;100682.27;1755502;81;21685;-73
2021/01/06 10:18:21;;;;;;;34.78;19.40;;;;;;;3.03;85.34;100684.39;1753383;79;21861;-73
2021/01/06 10:21:03;;;;;;;32.58;18.48;;;;;;;3.10;85.22;100687.55;1743655;81;21163;-73
2021/01/06 10:23:57;;;;;;;31.85;18.52;;;;;;;3.18;85.07;100687.31;1763671;81;22286;-72
2021/01/06 10:26:37;;;;;;;30.43;17.02;;;;;;;3.19;84.80;100692.89;1750457;81;21172;-72
2021/01/06 10:29:16;;;;;;;31.15;18.67;;;;;;;3.18;84.68;100692.08;1739556;81;21128;-72
2021/01/06 10:32:15;;;;;;;33.75;18.42;;;;;;;3.17;84.50;100693.11;1751083;81;22218;-73
2021/01/06 10:34:49;;;;;;;30.65;18.48;;;;;;;3.19;84.40;100695.05;1745792;81;21251;-72
2021/01/06 10:37:28;;;;;;;34.45;19.25;;;;;;;3.19;84.21;100700.80;1743295;81;21183;-73
2021/01/06 10:40:15;;;;;;;34.53;18.67;;;;;;;3.19;84.08;100699.48;1739624;81;21207;-71
2021/01/06 10:42:42;;;;;;;35.50;19.87;;;;;;;3.21;84.02;100705.39;1738974;79;21206;-72
2021/01/06 10:45:17;;;;;;;34.18;19.67;;;;;;;3.24;83.86;100710.26;1740993;81;21380;-71
2021/01/06 10:47:51;;;;;;;34.17;19.40;;;;;;;3.27;83.77;100704.57;1744123;81;21140;-72
2021/01/06 10:50:33;;;;;;;35.35;19.87;;;;;;;3.31;83.64;100701.81;1766010;81;21366;-70
2021/01/06 10:53:18;;;;;;;31.73;17.87;;;;;;;3.31;83.48;100698.37;1739469;80;28451;-73
2021/01/06 10:56:06;;;;;;;32.67;18.65;;;;;;;3.35;83.36;100705.66;1744537;79;21261;-73
2021/01/06 10:58:59;;;;;;;34.58;18.23;;;;;;;3.38;83.28;100711.05;1745705;81;21372;-73
2021/01/06 11:01:51;;;;;;;35.58;19.87;;;;;;;3.40;83.15;100708.52;1746039;81;21167;-72
2021/01/06 11:04:54;;;;;;;32.90;18.32;;;;;;;3.36;83.01;100703.86;1755949;79;21627;-71
2021/01/06 11:07:47;;;;;;;34.90;18.45;;;;;;;3.37;82.89;100707.59;1751009;79;21651;-73
2021/01/06 11:10:53;;;;;;;33.90;18.98;;;;;;;3.39;82.80;100711.34;1810478;79;21214;-71
2021/01/06 11:13:58;;;;;;;33.20;19.32;;;;;;;3.41;82.71;100707.48;1799585;79;21256;-73
2021/01/06 11:16:28;;;;;;;37.45;19.35;;;;;;;3.39;82.59;100718.78;1795232;77;21574;-74
2021/01/06 11:18:56;;;;;;;32.05;17.62;;;;;;;3.34;82.48;100714.61;1801899;79;21127;-72
2021/01/06 11:21:41;;;;;;;34.05;18.85;;;;;;;3.28;82.39;100712.27;1802957;79;21569;-73
2021/01/06 11:24:51;;;;;;;35.00;18.57;;;;;;;3.22;82.36;100709.13;1781096;79;21135;-74
2021/01/06 11:27:56;;;;;;;38.70;20.32;;;;;;;3.19;82.36;100700.80;1792512;77;21808;-72
2021/01/06 11:30:38;;;;;;;35.83;20.48;;;;;;;3.18;82.42;100699.20;1781877;79;21180;-72
2021/01/06 11:33:18;;;;;;;;;;;;;;;3.20;82.49;100701.13;1786114;79;21229;-72
2021/01/06 11:35:54;;;;;;;40.52;20.37;;;;;;;3.19;82.47;100708.25;1804479;79;20867;-71
2021/01/06 11:38:51;;;;;;;39.92;21.33;;;;;;;3.16;82.48;100707.81;1797624;79;21666;-73
2021/01/06 11:41:30;;;;;;;39.48;19.75;;;;;;;3.15;82.46;100699.60;1781240;79;21373;-73
2021/01/06 11:44:19;;;;;;;37.55;21.48;;;;;;;3.09;82.41;100686.70;1793316;79;21163;-72
2021/01/06 11:47:04;;;;;;;45.50;23.20;;;;;;;2.95;82.53;100691.70;1782892;79;21178;-73
2021/01/06 11:49:36;;;;;;;38.23;21.65;;;;;;;2.88;82.77;100690.38;1788695;79;21606;-72
2021/01/06 11:52:34;;;;;;;41.73;21.62;;;;;;;2.90;82.96;100689.67;1782912;79;21120;-71
2021/01/06 11:55:37;;;;;;;38.17;21.27;;;;;;;2.84;83.02;100689.67;1805642;79;22079;-71
2021/01/06 11:58:25;;;;;;;41.88;22.42;;;;;;;2.77;83.20;100688.35;1791178;79;21249;-72
2021/01/06 12:01:16;;;;;;;28.12;15.93;;;;;;;2.78;83.35;100689.97;1790022;79;21179;-72
2021/01/06 12:04:14;;;;;;;30.27;17.55;;;;;;;2.76;83.47;100689.34;1793146;79;21154;-72
2021/01/06 12:06:50;;;;;;;37.60;20.65;;;;;;;2.70;83.63;100691.47;1757578;77;21162;-72
2021/01/06 12:09:46;;;;;;;33.85;18.87;;;;;;;2.66;83.76;100696.84;1794054;79;21372;-73
2021/01/06 12:12:41;;;;;;;35.40;20.45;;;;;;;2.69;83.91;100690.66;1781029;79;21175;-72
2021/01/06 12:15:34;;;;;;;37.58;20.88;;;;;;;2.70;84.01;100696.27;1800622;79;21099;-72
2021/01/06 12:18:03;;;;;;;37.93;20.95;;;;;;;2.68;84.16;100694.83;1797999;77;21175;-72